createdAt,value
2018-07-05T00:00:49.551Z,3.70
2018-07-05T00:03:29.240Z,4.90
2018-07-05T00:06:08.376Z,3.80
2018-07-05T00:08:47.340Z,5.00
2018-07-05T00:11:26.240Z,5.17
2018-07-05T00:14:05.535Z,4.60
2018-07-05T00:16:45.032Z,4.43
2018-07-05T00:19:24.033Z,4.10
2018-07-05T00:22:02.847Z,6.10
2018-07-05T00:24:43.018Z,4.50
2018-07-05T00:27:22.004Z,4.20
2018-07-05T00:29:55.421Z,4.00
2018-07-05T00:32:34.080Z,4.43
2018-07-05T00:35:12.779Z,4.03
2018-07-05T00:37:51.860Z,4.00
2018-07-05T00:40:30.802Z,3.50
2018-07-05T00:43:09.658Z,6.00
2018-07-05T00:45:48.629Z,4.70
2018-07-05T00:48:27.533Z,3.83
2018-07-05T00:51:06.560Z,6.43
2018-07-05T00:53:45.470Z,5.07
2018-07-05T00:56:24.531Z,4.50
2018-07-05T00:59:03.488Z,4.70
2018-07-05T01:01:42.357Z,4.77
2018-07-05T01:04:21.243Z,4.33
2018-07-05T01:07:00.099Z,7.33
2018-07-05T01:09:39.029Z,6.73
2018-07-05T01:12:18.100Z,4.83
2018-07-05T01:14:57.971Z,6.47
2018-07-05T01:17:36.940Z,4.17
2018-07-05T01:20:15.886Z,7.23
2018-07-05T01:22:54.872Z,5.23
2018-07-05T01:25:33.818Z,4.70
2018-07-05T01:28:12.588Z,4.80
2018-07-05T01:30:51.660Z,4.47
2018-07-05T01:33:30.565Z,3.40
2018-07-05T01:36:09.514Z,4.10
2018-07-05T01:38:42.614Z,6.50
2018-07-05T01:41:21.549Z,4.10
2018-07-05T01:44:00.453Z,4.13
2018-07-05T01:46:39.493Z,5.10
2018-07-05T01:49:18.244Z,4.13
2018-07-05T01:51:57.040Z,3.73
2018-07-05T01:54:36.136Z,5.30
2018-07-05T01:57:15.048Z,4.70
2018-07-05T01:59:54.007Z,5.13
2018-07-05T02:02:32.841Z,4.63
2018-07-05T02:05:11.799Z,4.10
2018-07-05T02:07:50.697Z,4.03
2018-07-05T02:10:29.576Z,4.90
2018-07-05T02:13:08.379Z,4.03
2018-07-05T02:15:47.208Z,4.53
2018-07-05T02:18:26.148Z,5.30
2018-07-05T02:21:05.113Z,4.30
2018-07-05T02:23:44.081Z,3.40
2018-07-05T02:26:23.075Z,5.67
2018-07-05T02:29:01.967Z,4.83
2018-07-05T02:31:41.640Z,5.00
2018-07-05T02:34:20.546Z,7.20
2018-07-05T02:36:59.548Z,4.00
2018-07-05T02:39:44.297Z,8.73
2018-07-05T02:42:23.131Z,4.50
2018-07-05T02:45:02.077Z,4.77
2018-07-05T02:47:41.174Z,5.13
2018-07-05T02:50:20.126Z,5.00
2018-07-05T02:52:59.085Z,4.60
2018-07-05T02:55:37.990Z,4.90
2018-07-05T02:58:16.889Z,3.50
2018-07-05T03:00:55.890Z,3.70
2018-07-05T03:03:34.996Z,6.07
2018-07-05T03:06:13.997Z,3.73
2018-07-05T03:08:52.916Z,4.37
2018-07-05T03:11:31.792Z,3.83
2018-07-05T03:14:10.869Z,3.60
2018-07-05T03:16:49.652Z,4.67
2018-07-05T03:19:28.424Z,5.97
2018-07-05T03:22:07.160Z,4.33
2018-07-05T03:24:46.239Z,4.50
2018-07-05T03:27:25.219Z,4.10
2018-07-05T03:30:04.308Z,4.30
2018-07-05T03:32:43.214Z,6.27
2018-07-05T03:35:22.104Z,3.70
2018-07-05T03:38:00.928Z,5.43
2018-07-05T03:40:39.916Z,4.40
2018-07-05T03:43:13.022Z,3.90
2018-07-05T03:45:52.401Z,8.40
2018-07-05T03:48:25.348Z,8.20
2018-07-05T03:50:58.495Z,4.17
2018-07-05T03:53:37.302Z,8.73
2018-07-05T03:56:16.380Z,4.73
2018-07-05T03:58:55.220Z,5.23
2018-07-05T04:01:34.952Z,3.90
2018-07-05T04:04:13.644Z,4.37
2018-07-05T04:06:52.519Z,4.30
2018-07-05T04:09:31.435Z,4.00
2018-07-05T04:12:10.392Z,4.73
2018-07-05T04:14:49.296Z,4.87
2018-07-05T04:17:28.129Z,9.00
2018-07-05T04:20:07.172Z,3.77
2018-07-05T04:22:46.161Z,6.60
2018-07-05T04:25:25.311Z,3.93
2018-07-05T04:28:04.287Z,4.93
2018-07-05T04:30:43.265Z,6.60
2018-07-05T04:33:22.291Z,5.10
2018-07-05T04:36:01.401Z,7.37
2018-07-05T04:38:40.433Z,4.43
2018-07-05T04:41:19.370Z,4.73
2018-07-05T04:43:58.319Z,5.70
2018-07-05T04:46:37.241Z,5.40
2018-07-05T04:49:16.153Z,4.50
2018-07-05T04:51:55.051Z,4.53
2018-07-05T04:54:33.947Z,4.33
2018-07-05T04:57:13.053Z,5.63
2018-07-05T04:59:51.989Z,5.73
2018-07-05T05:02:25.160Z,9.10
2018-07-05T05:05:04.083Z,6.90
2018-07-05T05:07:42.572Z,4.63
2018-07-05T05:10:21.425Z,10.73
2018-07-05T05:13:00.434Z,5.23
2018-07-05T05:15:39.501Z,12.77
2018-07-05T05:18:18.645Z,23.40
2018-07-05T05:20:57.709Z,9.00
2018-07-05T05:23:36.668Z,16.43
2018-07-05T05:26:15.660Z,8.77
2018-07-05T05:28:54.623Z,5.83
2018-07-05T05:31:33.597Z,5.90
2018-07-05T05:34:12.487Z,7.00
2018-07-05T05:36:51.532Z,6.20
2018-07-05T05:39:30.451Z,5.80
2018-07-05T05:42:09.449Z,5.80
2018-07-05T05:44:48.410Z,6.10
2018-07-05T05:47:27.379Z,10.80
2018-07-05T05:50:06.341Z,9.50
2018-07-05T05:52:45.163Z,6.33
2018-07-05T05:55:24.139Z,7.50
2018-07-05T05:58:03.842Z,7.43
2018-07-05T06:00:42.744Z,5.50
2018-07-05T06:03:21.813Z,5.57
2018-07-05T06:06:00.816Z,10.57
2018-07-05T06:08:40.995Z,12.73
2018-07-05T06:21:05.149Z,7.10
2018-07-05T06:23:44.025Z,8.10
2018-07-05T06:26:17.129Z,7.87
2018-07-05T06:28:57.325Z,10.37
2018-07-05T06:31:36.065Z,7.17
2018-07-05T06:34:15.175Z,6.63
2018-07-05T06:36:54.151Z,5.80
2018-07-05T06:39:33.248Z,6.53
2018-07-05T06:42:12.268Z,6.47
2018-07-05T06:44:45.284Z,8.40
2018-07-05T06:47:18.463Z,6.90
2018-07-05T06:49:59.162Z,5.70
2018-07-05T07:02:23.788Z,4.97
2018-07-05T07:04:57.402Z,7.97
2018-07-05T07:07:36.848Z,5.60
2018-07-05T07:10:15.690Z,6.30
2018-07-05T07:12:54.953Z,6.00
2018-07-05T07:15:33.976Z,11.07
2018-07-05T07:18:13.873Z,5.30
2018-07-05T07:20:52.685Z,8.87
2018-07-05T07:23:31.452Z,9.80
2018-07-05T07:26:10.552Z,13.83
2018-07-05T07:28:49.337Z,4.23
2018-07-05T07:31:28.417Z,6.40
2018-07-05T07:34:07.290Z,5.20
2018-07-05T07:36:46.174Z,7.33
2018-07-05T07:39:25.597Z,6.67
2018-07-05T07:41:52.019Z,6.40
2018-07-05T07:44:19.970Z,5.37
2018-07-05T07:46:47.522Z,7.50
2018-07-05T07:49:14.370Z,4.90
2018-07-05T07:51:40.809Z,5.53
2018-07-05T07:54:07.259Z,7.70
2018-07-05T07:56:33.723Z,5.03
2018-07-05T07:59:00.202Z,6.50
2018-07-05T08:01:26.634Z,5.90
2018-07-05T08:03:53.608Z,4.03
2018-07-05T08:06:20.090Z,6.93
2018-07-05T08:08:46.759Z,7.07
2018-07-05T08:11:13.213Z,5.73
2018-07-05T08:13:39.620Z,6.87
2018-07-05T08:16:06.062Z,9.23
2018-07-05T08:18:32.465Z,7.10
2018-07-05T08:20:58.909Z,6.63
2018-07-05T08:23:25.342Z,6.70
2018-07-05T08:25:52.250Z,8.10
2018-07-05T08:28:18.648Z,6.63
2018-07-05T08:30:45.960Z,5.40
2018-07-05T08:33:12.390Z,6.63
2018-07-05T08:35:40.994Z,5.33
2018-07-05T08:38:07.390Z,6.50
2018-07-05T08:40:33.826Z,9.60
2018-07-05T08:43:03.265Z,5.80
2018-07-05T08:45:30.445Z,8.07
2018-07-05T08:47:56.853Z,5.17
2018-07-05T08:50:23.943Z,6.90
2018-07-05T08:52:50.367Z,6.30
2018-07-05T08:55:16.772Z,8.37
2018-07-05T08:57:43.212Z,4.93
2018-07-05T09:00:09.631Z,8.30
2018-07-05T09:02:36.131Z,7.87
2018-07-05T09:05:02.544Z,6.53
2018-07-05T09:07:29.004Z,4.33
2018-07-05T09:09:55.430Z,8.57
2018-07-05T09:12:22.089Z,6.50
2018-07-05T09:14:48.520Z,6.57
2018-07-05T09:17:14.997Z,8.57
2018-07-05T09:29:26.461Z,10.57
2018-07-05T09:31:53.021Z,6.80
2018-07-05T09:34:19.504Z,8.90
2018-07-05T09:36:45.952Z,7.27
2018-07-05T09:39:12.585Z,9.13
2018-07-05T09:41:39.046Z,6.43
2018-07-05T09:44:05.878Z,7.20
2018-07-05T09:46:32.341Z,10.63
2018-07-05T09:48:59.287Z,6.57
2018-07-05T09:51:25.732Z,6.10
2018-07-05T09:53:52.201Z,9.10
2018-07-05T09:56:18.654Z,6.30
2018-07-05T09:58:45.104Z,7.30
2018-07-05T10:01:11.558Z,5.17
2018-07-05T10:03:38.175Z,13.27
2018-07-05T10:06:05.694Z,6.90
2018-07-05T10:08:32.423Z,5.10
2018-07-05T10:10:59.593Z,10.00
2018-07-05T10:13:26.205Z,6.43
2018-07-05T10:15:52.762Z,7.77
2018-07-05T10:18:19.260Z,6.67
2018-07-05T10:20:45.656Z,5.10
2018-07-05T10:23:12.564Z,7.20
2018-07-05T10:25:39.007Z,6.50
2018-07-05T10:28:05.979Z,7.67
2018-07-05T10:30:44.877Z,5.67
2018-07-05T10:33:23.955Z,6.20
2018-07-05T10:35:50.418Z,8.83
2018-07-05T10:38:16.837Z,6.50
2018-07-05T10:40:56.865Z,7.53
2018-07-05T10:43:35.912Z,5.37
2018-07-05T10:46:09.205Z,6.50
2018-07-05T10:48:48.088Z,8.60
2018-07-05T10:51:27.037Z,6.80
2018-07-05T10:54:05.892Z,6.83
2018-07-05T10:56:45.165Z,6.57
2018-07-05T10:59:24.034Z,6.00
2018-07-05T11:02:03.058Z,6.93
2018-07-05T11:04:42.953Z,6.43
2018-07-05T11:07:22.024Z,9.70
2018-07-05T11:10:01.395Z,6.77
2018-07-05T11:12:40.921Z,6.20
2018-07-05T11:15:19.943Z,6.93
2018-07-05T11:17:59.111Z,6.47
2018-07-05T11:20:37.944Z,10.70
2018-07-05T11:23:16.825Z,6.40
2018-07-05T11:25:55.929Z,6.10
2018-07-05T11:28:35.744Z,5.33
2018-07-05T11:31:14.638Z,8.50
2018-07-05T11:33:53.604Z,4.93
2018-07-05T11:36:32.708Z,4.33
2018-07-05T11:39:11.758Z,5.33
2018-07-05T11:41:51.298Z,6.17
2018-07-05T11:44:30.299Z,8.23
2018-07-05T11:47:09.394Z,9.63
2018-07-05T11:49:48.357Z,5.33
2018-07-05T11:52:21.596Z,5.00
2018-07-05T11:55:00.512Z,8.70
2018-07-05T12:07:24.489Z,5.10
2018-07-05T12:10:03.441Z,5.33
2018-07-05T12:12:42.276Z,5.73
2018-07-05T12:15:21.630Z,6.33
2018-07-05T12:18:00.570Z,5.33
2018-07-05T12:20:39.754Z,7.00
2018-07-05T12:23:18.962Z,4.80
2018-07-05T12:25:58.109Z,5.87
2018-07-05T12:28:36.996Z,6.60
2018-07-05T12:31:16.110Z,5.87
2018-07-05T12:33:54.996Z,6.20
2018-07-05T12:36:34.042Z,6.60
2018-07-05T12:48:58.344Z,4.33
2018-07-05T12:51:38.037Z,4.33
2018-07-05T12:54:16.847Z,4.57
2018-07-05T12:56:55.825Z,6.70
2018-07-05T12:59:34.784Z,5.70
2018-07-05T13:02:13.898Z,3.63
2018-07-05T13:04:53.176Z,4.63
2018-07-05T13:07:32.162Z,4.17
2018-07-05T13:10:11.436Z,3.43
2018-07-05T13:12:50.361Z,5.63
2018-07-05T13:15:29.350Z,5.63
2018-07-05T13:18:09.369Z,3.53
2018-07-05T13:20:48.484Z,3.60
2018-07-05T13:23:27.560Z,3.80
2018-07-05T13:26:06.673Z,4.60
2018-07-05T13:28:45.744Z,3.83
2018-07-05T13:31:24.528Z,6.73
2018-07-05T13:34:03.484Z,5.33
2018-07-05T13:36:42.379Z,5.97
2018-07-05T13:39:21.331Z,4.87
2018-07-05T13:42:00.645Z,5.10
2018-07-05T13:44:39.617Z,4.63
2018-07-05T13:47:18.600Z,5.10
2018-07-05T13:49:58.542Z,4.60
2018-07-05T13:52:37.546Z,4.50
2018-07-05T13:55:17.216Z,11.03
2018-07-05T13:57:56.059Z,4.67
2018-07-05T14:00:35.191Z,4.10
2018-07-05T14:03:14.313Z,5.03
2018-07-05T14:05:53.190Z,4.83
2018-07-05T14:08:32.342Z,3.60
2018-07-05T14:11:11.350Z,3.60
2018-07-05T14:13:50.351Z,7.80
2018-07-05T14:16:29.289Z,4.00
2018-07-05T14:19:08.246Z,4.97
2018-07-05T14:21:47.293Z,3.77
2018-07-05T14:24:26.907Z,4.30
2018-07-05T14:27:06.160Z,3.60
2018-07-05T14:29:45.217Z,5.50
2018-07-05T14:32:24.254Z,4.10
2018-07-05T14:35:03.376Z,3.97
2018-07-05T14:37:42.503Z,4.30
2018-07-05T14:40:22.004Z,3.90
2018-07-05T14:43:01.108Z,3.53
2018-07-05T14:45:40.133Z,7.20
2018-07-05T14:48:19.160Z,4.93
2018-07-05T14:50:58.142Z,4.47
2018-07-05T14:53:37.253Z,4.13
2018-07-05T14:56:16.258Z,3.77
2018-07-05T14:58:55.338Z,4.27
2018-07-05T15:01:34.469Z,5.50
2018-07-05T15:04:13.535Z,4.53
2018-07-05T15:06:52.436Z,4.13
2018-07-05T15:09:31.416Z,4.17
2018-07-05T15:12:10.371Z,7.70
2018-07-05T15:14:49.388Z,8.90
2018-07-05T15:17:28.525Z,4.90
2018-07-05T15:20:07.673Z,4.43
2018-07-05T15:22:46.731Z,4.70
2018-07-05T15:25:25.851Z,4.23
2018-07-05T15:28:04.836Z,7.50
2018-07-05T15:30:43.913Z,5.17
2018-07-05T15:33:22.883Z,7.63
2018-07-05T15:36:01.738Z,4.70
2018-07-05T15:38:40.681Z,4.70
2018-07-05T15:41:19.606Z,3.27
2018-07-05T15:43:58.607Z,3.60
2018-07-05T15:46:37.625Z,4.00
2018-07-05T15:49:17.315Z,7.03
2018-07-05T15:51:51.090Z,7.03
2018-07-05T15:54:30.177Z,4.80
2018-07-05T15:57:09.271Z,4.40
2018-07-05T15:59:48.221Z,4.10
2018-07-05T16:02:27.128Z,4.10
2018-07-05T16:05:06.010Z,6.60
2018-07-05T16:07:44.718Z,4.83
2018-07-05T16:10:23.796Z,5.10
2018-07-05T16:13:02.690Z,5.23
2018-07-05T16:15:41.618Z,4.87
2018-07-05T16:18:20.714Z,8.10
2018-07-05T16:20:59.644Z,5.30
2018-07-05T16:23:38.538Z,9.07
2018-07-05T16:26:17.491Z,10.40
2018-07-05T16:28:57.152Z,7.80
2018-07-05T16:31:36.177Z,6.07
2018-07-05T16:34:15.216Z,5.70
2018-07-05T16:36:54.040Z,8.80
2018-07-05T16:39:33.086Z,8.93
2018-07-05T16:42:12.394Z,6.57
2018-07-05T16:44:51.320Z,5.83
2018-07-05T16:47:30.165Z,7.83
2018-07-05T16:50:09.132Z,6.17
2018-07-05T16:52:48.080Z,9.13
2018-07-05T16:55:27.112Z,6.83
2018-07-05T16:58:05.991Z,6.40
2018-07-05T17:00:45.030Z,5.97
2018-07-05T17:03:24.761Z,6.37
2018-07-05T17:06:03.724Z,7.10
2018-07-05T17:08:42.686Z,7.77
2018-07-05T17:11:22.281Z,7.80
2018-07-05T17:14:01.344Z,7.30
2018-07-05T17:16:34.427Z,7.93
2018-07-05T17:19:13.394Z,9.20
2018-07-05T17:21:52.421Z,8.97
2018-07-05T17:24:31.205Z,10.30
2018-07-05T17:27:05.195Z,8.33
2018-07-05T17:29:44.160Z,8.03
2018-07-05T17:32:23.092Z,8.03
2018-07-05T17:35:02.128Z,9.80
2018-07-05T17:37:41.181Z,9.27
2018-07-05T17:40:20.117Z,8.67
2018-07-05T17:42:59.164Z,10.13
2018-07-05T17:45:38.123Z,7.97
2018-07-05T17:48:17.169Z,6.73
2018-07-05T17:50:56.092Z,7.80
2018-07-05T17:53:35.901Z,13.00
2018-07-05T17:56:14.784Z,7.67
2018-07-05T17:58:54.620Z,9.13
2018-07-05T18:01:33.601Z,9.30
2018-07-05T18:04:13.739Z,8.03
2018-07-05T18:06:52.822Z,8.43
2018-07-05T18:09:31.875Z,8.70
2018-07-05T18:12:10.741Z,9.70
2018-07-05T18:14:49.739Z,10.00
2018-07-05T18:17:28.683Z,9.10
2018-07-05T18:20:07.777Z,10.10
2018-07-05T18:22:46.799Z,8.80
2018-07-05T18:25:25.750Z,8.00
2018-07-05T18:28:04.961Z,9.27
2018-07-05T18:30:43.881Z,8.00
2018-07-05T18:33:22.779Z,8.50
2018-07-05T18:36:01.899Z,11.63
2018-07-05T18:38:40.920Z,8.90
2018-07-05T18:41:19.882Z,9.10
2018-07-05T18:43:58.852Z,16.50
2018-07-05T18:46:37.797Z,10.87
2018-07-05T18:49:17.701Z,9.43
2018-07-05T18:51:57.803Z,14.43
2018-07-05T18:54:37.938Z,8.80
2018-07-05T18:57:18.004Z,8.53
2018-07-05T18:59:56.998Z,8.87
2018-07-05T19:02:36.298Z,11.23
2018-07-05T19:05:15.766Z,9.67
2018-07-05T19:07:55.606Z,9.80
2018-07-05T19:10:35.869Z,8.70
2018-07-05T19:13:14.896Z,8.47
2018-07-05T19:15:54.597Z,9.03
2018-07-05T19:18:28.356Z,9.03
2018-07-05T19:21:09.581Z,9.17
2018-07-05T19:23:48.429Z,11.40
2018-07-05T19:26:28.064Z,9.13
2018-07-05T19:29:07.313Z,11.00
2018-07-05T19:31:46.188Z,11.87
2018-07-05T19:34:25.246Z,24.00
2018-07-05T19:37:04.264Z,24.97
2018-07-05T19:39:43.356Z,20.50
2018-07-05T19:42:22.501Z,15.30
2018-07-05T19:45:01.234Z,11.13
2018-07-05T19:47:40.295Z,13.20
2018-07-05T19:50:19.560Z,12.77
2018-07-05T19:52:58.611Z,12.57
2018-07-05T19:55:38.041Z,15.47
2018-07-05T19:58:17.052Z,10.13
2018-07-05T20:00:56.272Z,11.43
2018-07-05T20:03:36.162Z,10.07
2018-07-05T20:06:15.499Z,10.00
2018-07-05T20:08:54.710Z,10.80
2018-07-05T20:11:33.767Z,11.03
2018-07-05T20:14:13.014Z,10.63
2018-07-05T20:16:51.890Z,10.87
2018-07-05T20:19:30.874Z,10.30
2018-07-05T20:22:15.732Z,9.37
2018-07-05T20:24:54.743Z,9.83
2018-07-05T20:27:33.530Z,11.37
2018-07-05T20:30:13.140Z,10.37
2018-07-05T20:32:52.846Z,11.33
2018-07-05T20:35:31.881Z,10.23
2018-07-05T20:38:10.803Z,10.23
2018-07-05T20:40:49.840Z,8.80
2018-07-05T20:43:29.058Z,10.27
2018-07-05T20:46:08.117Z,11.60
2018-07-05T20:48:46.995Z,11.07
2018-07-05T20:51:26.721Z,9.20
2018-07-05T20:54:05.730Z,9.00
2018-07-05T20:56:44.670Z,8.20
2018-07-05T20:59:23.776Z,7.93
2018-07-05T21:02:03.802Z,8.87
2018-07-05T21:04:43.525Z,10.00
2018-07-05T21:07:22.549Z,8.67
2018-07-05T21:10:01.542Z,7.90
2018-07-05T21:12:40.560Z,7.90
2018-07-05T21:15:19.539Z,8.10
2018-07-05T21:17:58.512Z,9.43
2018-07-05T21:20:38.115Z,14.83
2018-07-05T21:23:17.356Z,13.37
2018-07-05T21:25:57.278Z,14.97
2018-07-05T21:28:36.304Z,16.10
2018-07-05T21:31:15.515Z,9.60
2018-07-05T21:33:54.521Z,8.33
2018-07-05T21:36:33.677Z,8.90
2018-07-05T21:39:12.643Z,9.10
2018-07-05T21:41:51.771Z,8.60
2018-07-05T21:44:24.971Z,10.27
2018-07-05T21:47:03.886Z,8.60
2018-07-05T21:49:43.002Z,8.93
2018-07-05T21:52:22.017Z,9.10
2018-07-05T21:55:01.076Z,8.73
2018-07-05T21:57:39.999Z,8.53
2018-07-05T22:00:19.130Z,10.57
2018-07-05T22:02:58.139Z,14.50
2018-07-05T22:05:37.583Z,10.00
2018-07-05T22:08:16.444Z,10.47
2018-07-05T22:10:56.633Z,9.30
2018-07-05T22:13:35.634Z,9.77
2018-07-05T22:16:08.922Z,8.83
2018-07-05T22:18:53.794Z,11.23
2018-07-05T22:21:37.808Z,10.83
2018-07-05T22:24:23.488Z,11.10
2018-07-05T22:27:03.815Z,9.70
2018-07-05T22:29:49.582Z,10.10
2018-07-05T22:32:29.322Z,10.87
2018-07-05T22:35:09.918Z,11.77
2018-07-05T22:37:49.083Z,11.00
2018-07-05T22:40:28.446Z,10.50
2018-07-05T22:43:07.728Z,10.33
2018-07-05T22:45:46.990Z,11.33
2018-07-05T22:48:25.868Z,10.53
2018-07-05T22:51:05.192Z,12.43
2018-07-05T22:53:38.400Z,12.37
2018-07-05T22:56:17.342Z,11.37
2018-07-05T22:58:56.386Z,12.77
2018-07-05T23:01:35.279Z,10.90
2018-07-05T23:04:14.307Z,11.63
2018-07-05T23:06:54.354Z,11.43
2018-07-05T23:09:33.116Z,11.63
2018-07-05T23:12:12.137Z,12.67
2018-07-05T23:14:51.869Z,13.77
2018-07-05T23:17:30.868Z,12.00
2018-07-05T23:20:11.439Z,13.20
2018-07-05T23:22:50.497Z,14.73
2018-07-05T23:25:29.359Z,15.17
2018-07-05T23:28:08.287Z,13.17
2018-07-05T23:30:47.386Z,13.67
2018-07-05T23:33:26.835Z,14.53
2018-07-05T23:36:05.988Z,14.40
2018-07-05T23:38:44.901Z,13.57
2018-07-05T23:41:23.959Z,14.17
2018-07-05T23:44:03.016Z,13.50
2018-07-05T23:46:42.884Z,14.83
2018-07-05T23:59:11.900Z,14.77
